Time;durP1;ratioP1;P1;durP2;ratioP2;P2;SDS_P1;SDS_P2;PMS_P1;PMS_P2;Temp;Humidity;BMP_temperature;BMP_pressure;BME280_temperature;BME280_humidity;BME280_pressure;Samples;Min_cycle;Max_cycle;Signal;HPM_P1;HPM_P2
2021/03/10 05:43:16;;;;;;;;;;;;;;;-4.92;68.37;101098.72;1732509;82;20194;-35
2021/03/10 05:45:44;;;;;;;;;;;;;;;-4.75;68.23;101112.34;1715987;83;20465;-40
2021/03/10 05:48:11;;;;;;;;;;;;;;;-4.62;68.07;101117.95;1737716;80;20615;-40
2021/03/10 05:50:39;;;;;;;;;;;;;;;-4.51;68.00;101122.57;1719662;82;20174;-40
2021/03/10 05:53:09;;;;;;;;;;;;;;;-4.47;67.62;101124.16;1772797;79;20151;-39
2021/03/10 05:55:37;;;;;;;;;;;;;;;-4.50;67.60;101122.67;1761413;79;20167;-39
2021/03/10 05:58:10;;;;;;;;;;;;;;;-4.46;67.78;101122.13;1767440;79;20172;-35
2021/03/10 06:00:47;;;;;;;;;;;;;;;-4.32;67.84;101124.00;1803880;79;20172;-35
2021/03/10 06:03:15;;;;;;;;;;;;;;;-4.25;67.75;101131.72;1779622;79;20183;-37
2021/03/10 06:05:43;;;;;;;;;;;;;;;-4.13;67.52;101131.31;1775413;80;20178;-36
2021/03/10 06:08:15;;;;;;;;;;;;;;;-3.97;67.29;101138.42;1778126;79;20206;-36
2021/03/10 06:10:42;;;;;;;;;;;;;;;-3.82;66.84;101136.08;1773806;79;20171;-35
2021/03/10 06:13:23;;;;;;;;;;;;;;;-3.76;66.20;101129.72;1777024;79;20178;-36
2021/03/10 06:15:52;;;;;;;;;;;;;;;-3.68;66.11;101138.31;1776407;79;20150;-40
2021/03/10 06:18:28;;;;;;;;;;;;;;;-3.62;65.95;101138.34;1777059;80;20489;-40
2021/03/10 06:21:12;;;;;;;;;;;;;;;-3.53;65.85;101133.00;1772380;79;20445;-35
2021/03/10 06:23:54;;;;;;;;;;;;;;;-3.38;65.73;101137.88;1775860;79;20194;-40
2021/03/10 06:26:26;;;;;;;;;;;;;;;-3.28;65.50;101135.17;1775291;79;20135;-35
2021/03/10 06:29:00;;;;;;;;;;;;;;;-3.14;65.49;101136.09;1777620;80;20198;-39
2021/03/10 06:31:35;;;;;;;;;;;;;;;-3.03;65.28;101141.95;1771215;80;20183;-40
2021/03/10 06:42:24;;;;;;;;;;;;;;;-2.81;65.25;101140.44;1693864;83;20212;-36
2021/03/10 06:56:29;;;;;;;;;;;;;;;-1.96;63.05;101136.17;1689736;83;20223;-38
2021/03/10 06:59:11;;;;;;;;;;;;;;;-1.83;61.80;101139.10;1691272;83;20202;-36
2021/03/10 07:02:21;;;;;;;;;;;;;;;-1.72;61.07;101143.23;1685211;83;20277;-37
2021/03/10 07:04:58;;;;;;;;;;;;;;;-1.65;60.85;101136.39;1692557;83;20643;-36
2021/03/10 07:07:30;;;;;;;;;;;;;;;-1.54;60.37;101139.23;1695158;83;20403;-41
2021/03/10 07:10:18;;;;;;;;;;;;;;;-1.43;59.74;101143.75;1687307;83;20175;-42
2021/03/10 07:13:29;;;;;;;;;;;;;;;-1.32;59.31;101141.84;1697546;83;20227;-41
2021/03/10 07:16:28;;;;;;;;;;;;;;;-1.12;58.53;101144.80;1667792;83;20198;-36
2021/03/10 07:19:39;;;;;;;;;;;;;;;-0.94;57.88;101145.01;1682257;83;20556;-35
2021/03/10 07:26:34;;;;;;;;;;;;;;;-0.77;54.68;101135.73;1687248;83;20195;-41
2021/03/10 07:29:56;;;;;;;;;;;;;;;-0.73;53.85;101135.52;1690283;83;20193;-41
2021/03/10 07:33:42;;;;;;;;;;;;;;;-0.64;53.14;101134.75;1685802;83;20221;-37
2021/03/10 07:36:41;;;;;;;;;;;;;;;-0.48;52.14;101134.84;1689033;83;20328;-37
2021/03/10 07:39:23;;;;;;;;;;;;;;;-0.33;50.93;101130.99;1697062;83;20500;-36
2021/03/10 07:42:11;;;;;;;;;;;;;;;-0.19;49.48;101130.07;1801704;78;20275;-37
2021/03/10 07:44:41;;;;;;;;;;;;;;;-0.12;48.44;101130.02;1775472;79;20179;-41
2021/03/10 07:47:09;;;;;;;;;;;;;;;-0.03;47.35;101126.68;1773475;79;20185;-36
2021/03/10 07:49:38;;;;;;;;;;;;;;;0.09;47.08;101123.90;1777761;80;20576;-36
2021/03/10 07:52:14;;;;;;;;;;;;;;;0.15;46.72;101125.52;1766783;80;20166;-41
2021/03/10 07:54:41;;;;;;;;;;;;;;;0.18;45.96;101122.73;1775913;79;20167;-41
2021/03/10 07:57:14;;;;;;;;;;;;;;;0.14;45.67;101122.06;1773617;79;20206;-41
2021/03/10 07:59:56;;;;;;;;;;;;;;;0.07;45.91;101123.82;1769765;80;20199;-41
2021/03/10 08:02:25;;;;;;;;;;;;;;;0.16;45.60;101119.56;1772575;80;20201;-41
2021/03/10 08:05:01;;;;;;;;;;;;;;;0.27;44.60;101119.75;1777337;80;20966;-40
2021/03/10 08:07:31;;;;;;;;;;;;;;;0.28;44.64;101115.48;1774821;80;20210;-36
2021/03/10 08:09:58;;;;;;;;;;;;;;;0.28;43.97;101115.08;1771973;79;20464;-35
2021/03/10 08:12:35;;;;;;;;;;;;;;;0.34;44.33;101116.70;1772889;79;20181;-36
2021/03/10 08:15:06;;;;;;;;;;;;;;;0.42;43.34;101119.70;1774960;80;20661;-49
2021/03/10 08:17:33;;;;;;;;;;;;;;;0.45;42.21;101114.30;1766785;80;20505;-36
2021/03/10 08:20:04;;;;;;;;;;;;;;;0.37;43.37;101124.60;1770889;79;20155;-36
2021/03/10 08:22:33;;;;;;;;;;;;;;;0.41;43.20;101119.23;1769769;79;20202;-37
2021/03/10 08:25:03;;;;;;;;;;;;;;;0.48;43.33;101117.45;1775474;79;20462;-36
2021/03/10 08:27:39;;;;;;;;;;;;;;;0.55;43.99;101120.84;1773630;79;20181;-42
2021/03/10 08:30:11;;;;;;;;;;;;;;;0.66;43.44;101118.42;1771388;79;20226;-37
2021/03/10 08:32:38;;;;;;;;;;;;;;;0.68;43.21;101122.36;1771121;79;20182;-37
2021/03/10 08:35:11;;;;;;;;;;;;;;;0.74;42.95;101109.80;1774757;79;20608;-42
2021/03/10 08:37:39;;;;;;;;;;;;;;;0.86;42.57;101106.98;1765333;79;20197;-41
2021/03/10 08:40:07;;;;;;;;;;;;;;;0.90;42.35;101113.66;1772040;80;20175;-42
2021/03/10 08:42:35;;;;;;;;;;;;;;;0.94;41.69;101105.70;1739584;81;20472;-41
2021/03/10 08:45:04;;;;;;;;;;;;;;;0.96;41.29;101108.83;1764420;81;20262;-41
2021/03/10 08:47:31;;;;;;;;;;;;;;;0.99;41.44;101106.42;1760655;81;20162;-42
2021/03/10 08:49:59;;;;;;;;;;;;;;;1.06;41.14;101110.19;1761315;80;20407;-41
2021/03/10 08:52:28;;;;;;;;;;;;;;;1.03;40.65;101103.17;1754487;81;20383;-41
2021/03/10 08:55:00;;;;;;;;;;;;;;;1.07;40.31;101110.67;1749594;81;20177;-37
2021/03/10 08:57:32;;;;;;;;;;;;;;;1.10;40.77;101109.92;1760076;80;20476;-37
2021/03/10 09:00:00;;;;;;;;;;;;;;;1.16;40.47;101111.15;1755515;80;20185;-42
2021/03/10 09:02:32;;;;;;;;;;;;;;;1.11;41.03;101116.47;1756331;81;20202;-42
2021/03/10 09:05:06;;;;;;;;;;;;;;;1.12;41.22;101109.21;1741556;81;20214;-41
2021/03/10 09:07:37;;;;;;;;;;;;;;;1.12;40.36;101109.21;1756235;81;20275;-37
2021/03/10 09:10:09;;;;;;;;;;;;;;;1.19;40.80;101105.25;1757188;81;21081;-41
2021/03/10 09:12:44;;;;;;;;;;;;;;;1.27;40.75;101100.94;1758438;81;20174;-41
2021/03/10 09:15:16;;;;;;;;;;;;;;;1.37;40.91;101107.86;1754594;80;20277;-36
2021/03/10 09:17:46;;;;;;;;;;;;;;;1.36;40.75;101102.23;1695144;81;20451;-40
2021/03/10 09:20:29;;;;;;;;;;;;;;;1.36;41.30;101097.07;1761645;80;20946;-47
2021/03/10 09:23:01;;;;;;;;;;;;;;;1.50;40.50;101098.63;1759987;80;20196;-37
2021/03/10 09:25:46;;;;;;;;;;;;;;;1.56;40.55;101100.20;1741489;80;20187;-35
2021/03/10 09:28:22;;;;;;;;;;;;;;;1.49;40.99;101101.61;1722152;80;20334;-40
2021/03/10 09:30:58;;;;;;;;;;;;;;;1.49;40.66;101099.44;1736269;80;20222;-41
2021/03/10 09:33:33;;;;;;;;;;;;;;;1.45;41.26;101091.97;1755093;80;20312;-36
2021/03/10 09:36:05;;;;;;;;;;;;;;;1.41;41.33;101090.05;1742792;80;20506;-41
2021/03/10 09:38:37;;;;;;;;;;;;;;;1.45;40.59;101093.27;1757276;80;20293;-40
2021/03/10 09:41:11;;;;;;;;;;;;;;;1.57;40.66;101089.98;1718625;81;20663;-40
2021/03/10 09:43:40;;;;;;;;;;;;;;;1.65;41.35;101086.48;1695098;81;20196;-36
2021/03/10 09:46:09;;;;;;;;;;;;;;;1.82;41.43;101095.91;1728124;81;20180;-40
2021/03/10 09:48:40;;;;;;;;;;;;;;;1.90;40.76;101097.56;1697970;82;20443;-42
2021/03/10 09:51:19;;;;;;;;;;;;;;;1.94;40.49;101092.15;1724819;81;20195;-43
2021/03/10 09:53:49;;;;;;;;;;;;;;;2.04;39.90;101082.33;1727443;81;20175;-36
2021/03/10 09:56:24;;;;;;;;;;;;;;;2.10;39.46;101081.33;1726861;81;20222;-41
2021/03/10 09:58:59;;;;;;;;;;;;;;;2.13;39.25;101081.45;1726818;81;20550;-42
2021/03/10 10:01:30;;;;;;;;;;;;;;;2.20;39.31;101077.86;1727477;81;20183;-43
2021/03/10 10:04:04;;;;;;;;;;;;;;;2.16;39.35;101076.86;1727310;81;20588;-42
2021/03/10 10:06:32;;;;;;;;;;;;;;;2.07;39.90;101069.96;1722429;81;20183;-41
2021/03/10 10:09:02;;;;;;;;;;;;;;;2.04;39.32;101073.30;1699133;81;20190;-42
2021/03/10 10:11:33;;;;;;;;;;;;;;;2.13;38.82;101072.41;1726130;81;20490;-42
2021/03/10 10:14:01;;;;;;;;;;;;;;;2.25;38.71;101068.63;1724300;81;20166;-43
2021/03/10 10:16:31;;;;;;;;;;;;;;;2.29;38.02;101066.67;1724150;81;20462;-43
2021/03/10 10:19:01;;;;;;;;;;;;;;;2.30;38.56;101068.03;1692794;81;20502;-42
2021/03/10 10:21:30;;;;;;;;;;;;;;;2.38;38.71;101067.10;1726286;81;20592;-37
2021/03/10 10:24:01;;;;;;;;;;;;;;;2.45;38.76;101069.55;1719990;81;20214;-37
2021/03/10 10:26:29;;;;;;;;;;;;;;;2.62;38.45;101064.31;1722329;81;20194;-39
2021/03/10 10:28:56;;;;;;;;;;;;;;;2.69;38.09;101063.29;1723903;81;20178;-38
2021/03/10 10:36:08;;;;;;;;;;;;;;;2.96;38.22;101064.49;1741960;81;20203;-37
2021/03/10 10:39:07;;;;;;;;;;;;;;;3.47;37.64;101060.99;1722979;81;20415;-38
2021/03/10 10:41:41;;;;;;;;;;;;;;;3.83;37.01;101058.14;1743342;80;20183;-37
2021/03/10 10:44:09;;;;;;;;;;;;;;;4.08;36.32;101054.36;1730848;80;20272;-36
2021/03/10 10:46:39;;;;;;;;;;;;;;;4.37;36.24;101054.58;1728671;80;20224;-42
2021/03/10 10:52:18;;;;;;;;;;;;;;;5.25;35.18;101039.95;1755627;80;20452;-41
2021/03/10 10:54:58;;;;;;;;;;;;;;;5.76;34.47;101036.86;1758319;80;20484;-42
2021/03/10 10:58:13;;;;;;;;;;;;;;;6.16;33.54;101025.53;1740629;81;20179;-42
2021/03/10 11:01:36;;;;;;;;;;;;;;;6.32;32.09;101019.53;1764840;80;20549;-36
2021/03/10 11:04:58;;;;;;;;;;;;;;;6.50;31.61;101007.89;1762727;80;20241;-35
2021/03/10 11:08:33;;;;;;;;;;;;;;;6.72;31.27;101006.73;1764643;80;20258;-35
2021/03/10 11:11:43;;;;;;;;;;;;;;;6.63;31.59;101003.05;1735524;80;20159;-35
2021/03/10 11:15:16;;;;;;;;;;;;;;;6.59;31.32;101002.50;1762609;80;20185;-40
2021/03/10 11:18:18;;;;;;;;;;;;;;;6.75;30.73;100994.70;1760286;80;20166;-40
2021/03/10 11:21:21;;;;;;;;;;;;;;;6.83;30.63;100997.49;1752926;80;20554;-35
2021/03/10 11:24:04;;;;;;;;;;;;;;;6.89;30.30;100994.62;1752307;80;20185;-36
2021/03/10 11:26:32;;;;;;;;;;;;;;;6.83;30.27;100987.97;1759601;80;20332;-40
2021/03/10 11:33:38;;;;;;;;;;;;;;;6.61;30.48;100984.33;1703321;82;20187;-40
2021/03/10 11:36:43;;;;;;;;;;;;;;;6.32;31.25;100980.55;1695187;84;20299;-40
2021/03/10 11:39:15;;;;;;;;;;;;;;;6.27;31.99;100982.13;1719539;81;20227;-41
2021/03/10 11:41:45;;;;;;;;;;;;;;;6.05;31.91;100978.45;1712550;82;20192;-40
2021/03/10 11:44:14;;;;;;;;;;;;;;;5.89;31.52;100978.38;1706792;83;20572;-34
2021/03/10 11:46:45;;;;;;;;;;;;;;;5.83;31.48;100977.78;1703495;83;20184;-35
2021/03/10 11:49:14;;;;;;;;;;;;;;;5.84;31.64;100974.76;1704084;83;20282;-33
2021/03/10 11:51:44;;;;;;;;;;;;;;;5.67;31.71;100966.45;1680417;83;20199;-34
2021/03/10 11:54:13;;;;;;;;;;;;;;;5.50;32.77;100974.14;1707266;83;20178;-40
2021/03/10 11:56:41;;;;;;;;;;;;;;;5.42;32.72;100971.31;1706262;83;20171;-34
2021/03/10 11:59:11;;;;;;;;;;;;;;;5.36;32.73;100971.12;1702308;83;20180;-38
2021/03/10 12:01:41;;;;;;;;;;;;;;;5.38;33.39;100970.75;1703773;83;20480;-39
2021/03/10 12:04:11;;;;;;;;;;;;;;;5.34;33.73;100972.38;1708888;83;20338;-39
2021/03/10 12:06:40;;;;;;;;;;;;;;;5.22;33.93;100973.71;1703036;83;20283;-34
2021/03/10 12:09:08;;;;;;;;;;;;;;;4.98;34.64;100971.16;1706921;83;20187;-35
2021/03/10 12:11:36;;;;;;;;;;;;;;;4.70;35.10;100975.45;1674915;85;20183;-40
2021/03/10 12:14:05;;;;;;;;;;;;;;;4.49;35.16;100979.87;1644692;86;20476;-35
2021/03/10 12:16:33;;;;;;;;;;;;;;;4.32;35.77;100981.86;1703498;83;20429;-42
2021/03/10 12:19:01;;;;;;;;;;;;;;;4.21;35.88;100980.17;1706604;83;20563;-41
2021/03/10 12:21:35;;;;;;;;;;;;;;;4.13;35.71;100976.84;1672708;85;20183;-41
2021/03/10 12:24:14;;;;;;;;;;;;;;;4.13;36.25;100980.31;1675232;85;20210;-37
2021/03/10 12:26:42;;;;;;;;;;;;;;;4.01;36.21;100977.28;1676778;85;20166;-40
2021/03/10 12:29:10;;;;;;;;;;;;;;;3.81;36.43;100971.75;1675872;85;20190;-37
2021/03/10 12:31:39;;;;;;;;;;;;;;;3.63;36.23;100968.92;1679340;85;20178;-37
2021/03/10 12:34:08;;;;;;;;;;;;;;;3.57;36.72;100973.87;1647450;86;20182;-35
2021/03/10 12:36:36;;;;;;;;;;;;;;;3.69;37.13;100974.33;1706674;83;20213;-33
2021/03/10 12:39:06;;;;;;;;;;;;;;;3.85;36.81;100965.87;1678291;85;20184;-42
2021/03/10 12:41:33;;;;;;;;;;;;;;;4.02;36.49;100965.20;1657288;84;20546;-42
2021/03/10 12:44:02;;;;;;;;;;;;;;;4.20;35.92;100966.75;1687803;84;20169;-39
2021/03/10 12:46:32;;;;;;;;;;;;;;;4.36;35.35;100962.13;1712570;83;20512;-37
2021/03/10 12:49:00;;;;;;;;;;;;;;;4.34;34.83;100963.77;1714604;83;20463;-36
2021/03/10 12:51:29;;;;;;;;;;;;;;;4.28;34.63;100968.31;1718210;82;20749;-43
2021/03/10 12:53:56;;;;;;;;;;;;;;;4.35;35.11;100965.52;1707065;82;20570;-41
2021/03/10 12:56:25;;;;;;;;;;;;;;;4.54;35.17;100961.48;1700791;83;20287;-41
2021/03/10 12:58:53;;;;;;;;;;;;;;;4.79;35.25;100964.08;1705163;83;20208;-40
2021/03/10 13:01:21;;;;;;;;;;;;;;;5.07;34.62;100959.81;1722232;82;20233;-35
2021/03/10 13:03:49;;;;;;;;;;;;;;;5.11;34.97;100959.51;1698179;83;20567;-36
2021/03/10 13:06:17;;;;;;;;;;;;;;;5.05;35.11;100962.36;1715272;83;20202;-35
2021/03/10 13:08:45;;;;;;;;;;;;;;;5.03;34.76;100954.92;1718884;82;20447;-35
2021/03/10 13:11:12;;;;;;;;;;;;;;;4.86;35.63;100953.91;1703458;83;20180;-36
2021/03/10 13:13:40;;;;;;;;;;;;;;;5.06;35.56;100951.16;1726493;82;20210;-41
2021/03/10 13:16:07;;;;;;;;;;;;;;;5.25;35.30;100947.84;1720760;82;20449;-36
2021/03/10 13:18:35;;;;;;;;;;;;;;;5.29;35.56;100949.72;1725847;82;20182;-40
2021/03/10 13:21:03;;;;;;;;;;;;;;;5.20;35.37;100950.70;1718033;83;20170;-36
2021/03/10 13:23:30;;;;;;;;;;;;;;;5.39;34.73;100956.94;1706837;82;20452;-35
2021/03/10 13:25:57;;;;;;;;;;;;;;;5.80;34.22;100946.54;1716441;83;20142;-36
2021/03/10 13:28:25;;;;;;;;;;;;;;;6.14;33.16;100947.09;1719476;82;20348;-37
2021/03/10 13:30:52;;;;;;;;;;;;;;;6.30;33.11;100942.34;1718536;82;20178;-41
2021/03/10 13:33:20;;;;;;;;;;;;;;;6.08;32.52;100944.33;1723572;81;20434;-41
2021/03/10 13:35:49;;;;;;;;;;;;;;;5.78;32.83;100935.63;1722865;82;20353;-40
2021/03/10 13:38:18;;;;;;;;;;;;;;;5.55;32.96;100940.12;1692967;84;20213;-37
2021/03/10 13:40:45;;;;;;;;;;;;;;;5.46;32.57;100936.85;1686097;84;20151;-41
2021/03/10 13:43:13;;;;;;;;;;;;;;;5.32;32.71;100939.00;1727323;82;20199;-35
2021/03/10 13:45:40;;;;;;;;;;;;;;;5.44;33.27;100935.02;1696735;84;20159;-36
2021/03/10 13:48:08;;;;;;;;;;;;;;;5.67;33.09;100927.94;1686041;83;20180;-41
2021/03/10 13:50:36;;;;;;;;;;;;;;;5.91;32.49;100929.06;1723388;83;20218;-37
2021/03/10 13:53:04;;;;;;;;;;;;;;;6.12;32.68;100929.72;1692273;84;20534;-42
2021/03/10 13:55:32;;;;;;;;;;;;;;;6.46;32.23;100922.85;1706330;83;20173;-37
2021/03/10 13:58:00;;;;;;;;;;;;;;;6.46;32.27;100914.63;1715562;82;20513;-41
2021/03/10 14:00:29;;;;;;;;;;;;;;;6.51;32.00;100916.05;1711211;83;20430;-40
